sensor_id;sensor_type;location;lat;lon;timestamp;pressure;altitude;pressure_sealevel;temperature;humidity
8318;BME280;4196;48.926;8.964;2023-03-19T00:02:06;98745.03;;;6.29;100.00
8318;BME280;4196;48.926;8.964;2023-03-19T00:05:04;98760.53;;;6.35;100.00
8318;BME280;4196;48.926;8.964;2023-03-19T00:07:51;98752.03;;;6.42;100.00
8318;BME280;4196;48.926;8.964;2023-03-19T00:10:37;98754.56;;;6.39;100.00
8318;BME280;4196;48.926;8.964;2023-03-19T00:13:25;98749.34;;;6.33;100.00
8318;BME280;4196;48.926;8.964;2023-03-19T00:16:11;98750.22;;;6.31;100.00
8318;BME280;4196;48.926;8.964;2023-03-19T00:18:57;98770.84;;;6.38;100.00
8318;BME280;4196;48.926;8.964;2023-03-19T00:21:44;98779.56;;;6.52;100.00
8318;BME280;4196;48.926;8.964;2023-03-19T00:24:30;98746.94;;;6.51;100.00
8318;BME280;4196;48.926;8.964;2023-03-19T00:27:16;98774.47;;;6.60;100.00
8318;BME280;4196;48.926;8.964;2023-03-19T00:30:05;98752.97;;;6.52;100.00
8318;BME280;4196;48.926;8.964;2023-03-19T00:32:52;98705.66;;;6.36;100.00
8318;BME280;4196;48.926;8.964;2023-03-19T00:35:39;98766.84;;;6.71;100.00
8318;BME280;4196;48.926;8.964;2023-03-19T00:38:26;98743.66;;;6.68;100.00
8318;BME280;4196;48.926;8.964;2023-03-19T00:41:13;98761.69;;;6.72;100.00
8318;BME280;4196;48.926;8.964;2023-03-19T00:44:02;98747.97;;;6.70;100.00
8318;BME280;4196;48.926;8.964;2023-03-19T00:46:49;98762.75;;;6.97;100.00
8318;BME280;4196;48.926;8.964;2023-03-19T00:49:36;98753.31;;;6.96;100.00
8318;BME280;4196;48.926;8.964;2023-03-19T00:52:23;98742.09;;;6.88;100.00
8318;BME280;4196;48.926;8.964;2023-03-19T00:55:09;98731.63;;;6.65;100.00
8318;BME280;4196;48.926;8.964;2023-03-19T00:57:56;98773.03;;;6.94;100.00
8318;BME280;4196;48.926;8.964;2023-03-19T01:00:42;98748.09;;;6.87;100.00
8318;BME280;4196;48.926;8.964;2023-03-19T01:03:29;98774.72;;;6.89;100.00
8318;BME280;4196;48.926;8.964;2023-03-19T01:06:15;98777.38;;;7.00;100.00
8318;BME280;4196;48.926;8.964;2023-03-19T01:09:02;98758.34;;;6.84;100.00
8318;BME280;4196;48.926;8.964;2023-03-19T01:11:48;98788.47;;;6.94;100.00
8318;BME280;4196;48.926;8.964;2023-03-19T01:14:34;98785.19;;;7.17;100.00
8318;BME280;4196;48.926;8.964;2023-03-19T01:17:21;98758.47;;;6.98;100.00
8318;BME280;4196;48.926;8.964;2023-03-19T01:20:09;98788.59;;;7.13;100.00
8318;BME280;4196;48.926;8.964;2023-03-19T01:22:59;98768.03;;;7.14;100.00
8318;BME280;4196;48.926;8.964;2023-03-19T01:25:47;98802.50;;;7.39;100.00
8318;BME280;4196;48.926;8.964;2023-03-19T01:28:33;98802.50;;;7.39;100.00
8318;BME280;4196;48.926;8.964;2023-03-19T01:31:20;98817.13;;;7.40;100.00
8318;BME280;4196;48.926;8.964;2023-03-19T01:34:17;98828.28;;;7.42;100.00
8318;BME280;4196;48.926;8.964;2023-03-19T01:37:08;98794.59;;;7.13;100.00
8318;BME280;4196;48.926;8.964;2023-03-19T01:39:55;98818.69;;;7.21;100.00
8318;BME280;4196;48.926;8.964;2023-03-19T01:42:56;98824.75;;;7.28;100.00
8318;BME280;4196;48.926;8.964;2023-03-19T01:46:33;98809.38;;;7.43;100.00
8318;BME280;4196;48.926;8.964;2023-03-19T01:49:41;98849.06;;;7.71;100.00
8318;BME280;4196;48.926;8.964;2023-03-19T01:52:37;98816.34;;;7.57;100.00
8318;BME280;4196;48.926;8.964;2023-03-19T01:55:52;98851.59;;;7.64;100.00
8318;BME280;4196;48.926;8.964;2023-03-19T01:58:57;98848.06;;;7.51;100.00
8318;BME280;4196;48.926;8.964;2023-03-19T02:01:56;98835.25;;;7.59;100.00
8318;BME280;4196;48.926;8.964;2023-03-19T02:04:45;98837.66;;;7.31;100.00
8318;BME280;4196;48.926;8.964;2023-03-19T02:07:34;98847.09;;;7.32;100.00
8318;BME280;4196;48.926;8.964;2023-03-19T02:10:21;98790.28;;;7.08;100.00
8318;BME280;4196;48.926;8.964;2023-03-19T02:13:08;98830.00;;;7.40;100.00
8318;BME280;4196;48.926;8.964;2023-03-19T02:15:54;98814.41;;;7.22;100.00
8318;BME280;4196;48.926;8.964;2023-03-19T02:18:42;98829.91;;;7.31;100.00
8318;BME280;4196;48.926;8.964;2023-03-19T02:21:29;98804.94;;;7.15;100.00
8318;BME280;4196;48.926;8.964;2023-03-19T02:24:24;98821.41;;;7.41;100.00
8318;BME280;4196;48.926;8.964;2023-03-19T02:27:32;98830.88;;;7.47;100.00
8318;BME280;4196;48.926;8.964;2023-03-19T02:30:27;98812.00;;;7.49;100.00
8318;BME280;4196;48.926;8.964;2023-03-19T02:33:17;98807.78;;;7.64;100.00
8318;BME280;4196;48.926;8.964;2023-03-19T02:36:05;98828.50;;;7.82;100.00
8318;BME280;4196;48.926;8.964;2023-03-19T02:38:56;98830.22;;;7.83;100.00
8318;BME280;4196;48.926;8.964;2023-03-19T02:41:44;98799.16;;;7.56;100.00
8318;BME280;4196;48.926;8.964;2023-03-19T02:44:32;98794.88;;;7.59;100.00
8318;BME280;4196;48.926;8.964;2023-03-19T02:47:18;98813.72;;;7.49;100.00
8318;BME280;4196;48.926;8.964;2023-03-19T02:50:05;98829.22;;;7.55;100.00
8318;BME280;4196;48.926;8.964;2023-03-19T02:52:51;98801.56;;;7.26;100.00
8318;BME280;4196;48.926;8.964;2023-03-19T02:55:38;98806.72;;;7.28;100.00
8318;BME280;4196;48.926;8.964;2023-03-19T02:58:24;98808.44;;;7.28;100.00
8318;BME280;4196;48.926;8.964;2023-03-19T03:01:11;98808.34;;;7.12;100.00
8318;BME280;4196;48.926;8.964;2023-03-19T03:03:58;98839.22;;;7.14;100.00
8318;BME280;4196;48.926;8.964;2023-03-19T03:06:45;98793.47;;;6.76;100.00
8318;BME280;4196;48.926;8.964;2023-03-19T03:09:31;98820.19;;;6.92;100.00
8318;BME280;4196;48.926;8.964;2023-03-19T03:12:18;98837.31;;;6.88;100.00
8318;BME280;4196;48.926;8.964;2023-03-19T03:15:05;98834.66;;;6.77;100.00
8318;BME280;4196;48.926;8.964;2023-03-19T03:17:53;98806.22;;;6.65;100.00
8318;BME280;4196;48.926;8.964;2023-03-19T03:20:41;98841.47;;;6.71;100.00
8318;BME280;4196;48.926;8.964;2023-03-19T03:23:28;98843.06;;;6.63;100.00
8318;BME280;4196;48.926;8.964;2023-03-19T03:26:15;98845.56;;;6.55;100.00
8318;BME280;4196;48.926;8.964;2023-03-19T03:29:01;98854.16;;;6.54;100.00
8318;BME280;4196;48.926;8.964;2023-03-19T03:31:47;98826.47;;;6.30;100.00
8318;BME280;4196;48.926;8.964;2023-03-19T03:34:34;98854.94;;;6.45;100.00
8318;BME280;4196;48.926;8.964;2023-03-19T03:37:20;98848.78;;;6.33;100.00
8318;BME280;4196;48.926;8.964;2023-03-19T03:40:07;98857.47;;;6.44;100.00
8318;BME280;4196;48.926;8.964;2023-03-19T03:42:55;98860.78;;;6.32;100.00
8318;BME280;4196;48.926;8.964;2023-03-19T03:45:43;98814.41;;;6.23;100.00
8318;BME280;4196;48.926;8.964;2023-03-19T03:48:30;98854.97;;;6.51;100.00
8318;BME280;4196;48.926;8.964;2023-03-19T03:51:17;98860.16;;;6.54;100.00
8318;BME280;4196;48.926;8.964;2023-03-19T03:54:04;98856.72;;;6.54;100.00
8318;BME280;4196;48.926;8.964;2023-03-19T03:56:51;98839.41;;;6.39;100.00
8318;BME280;4196;48.926;8.964;2023-03-19T03:59:38;98870.47;;;6.58;100.00
8318;BME280;4196;48.926;8.964;2023-03-19T04:02:24;98876.56;;;6.66;100.00
8318;BME280;4196;48.926;8.964;2023-03-19T04:05:12;98867.16;;;6.68;100.00
8318;BME280;4196;48.926;8.964;2023-03-19T04:07:59;98865.44;;;6.70;100.00
8318;BME280;4196;48.926;8.964;2023-03-19T04:10:46;98867.06;;;6.59;100.00
8318;BME280;4196;48.926;8.964;2023-03-19T04:13:33;98879.97;;;6.63;100.00
8318;BME280;4196;48.926;8.964;2023-03-19T04:16:23;98852.44;;;6.53;100.00
8318;BME280;4196;48.926;8.964;2023-03-19T04:19:10;98877.44;;;6.68;100.00
8318;BME280;4196;48.926;8.964;2023-03-19T04:21:57;98884.34;;;6.70;100.00
8318;BME280;4196;48.926;8.964;2023-03-19T04:24:45;98850.81;;;6.64;100.00
8318;BME280;4196;48.926;8.964;2023-03-19T04:27:33;98869.13;;;6.93;100.00
8318;BME280;4196;48.926;8.964;2023-03-19T04:30:19;98879.38;;;6.90;100.00
8318;BME280;4196;48.926;8.964;2023-03-19T04:33:05;98851.75;;;6.72;100.00
8318;BME280;4196;48.926;8.964;2023-03-19T04:35:52;98805.25;;;6.49;100.00
8318;BME280;4196;48.926;8.964;2023-03-19T04:38:40;98860.44;;;6.82;100.00
8318;BME280;4196;48.926;8.964;2023-03-19T04:41:27;98869.94;;;6.89;100.00
8318;BME280;4196;48.926;8.964;2023-03-19T04:44:27;98861.38;;;6.95;100.00
8318;BME280;4196;48.926;8.964;2023-03-19T04:47:14;98867.47;;;7.01;100.00
8318;BME280;4196;48.926;8.964;2023-03-19T04:50:11;98874.28;;;6.96;100.00
8318;BME280;4196;48.926;8.964;2023-03-19T04:53:01;98862.19;;;6.86;100.00
8318;BME280;4196;48.926;8.964;2023-03-19T04:55:48;98842.41;;;6.84;100.00
8318;BME280;4196;48.926;8.964;2023-03-19T04:58:36;98858.91;;;7.06;100.00
8318;BME280;4196;48.926;8.964;2023-03-19T05:01:23;98859.78;;;7.08;100.00
8318;BME280;4196;48.926;8.964;2023-03-19T05:04:16;98878.78;;;7.22;100.00
8318;BME280;4196;48.926;8.964;2023-03-19T05:07:04;98885.63;;;7.18;100.00
8318;BME280;4196;48.926;8.964;2023-03-19T05:09:52;98866.50;;;6.89;100.00
8318;BME280;4196;48.926;8.964;2023-03-19T05:12:40;98892.28;;;6.95;100.00
8318;BME280;4196;48.926;8.964;2023-03-19T05:15:28;98869.81;;;6.75;100.00
8318;BME280;4196;48.926;8.964;2023-03-19T05:18:19;98909.41;;;6.90;100.00
8318;BME280;4196;48.926;8.964;2023-03-19T05:21:10;98907.75;;;6.98;100.00
8318;BME280;4196;48.926;8.964;2023-03-19T05:23:58;98886.28;;;6.94;100.00
8318;BME280;4196;48.926;8.964;2023-03-19T05:26:45;98905.31;;;7.12;100.00
8318;BME280;4196;48.926;8.964;2023-03-19T05:29:50;98891.53;;;7.04;100.00
8318;BME280;4196;48.926;8.964;2023-03-19T05:32:44;98874.16;;;6.84;100.00
8318;BME280;4196;48.926;8.964;2023-03-19T05:35:39;98898.25;;;6.89;100.00
8318;BME280;4196;48.926;8.964;2023-03-19T05:38:37;98881.88;;;6.83;100.00
8318;BME280;4196;48.926;8.964;2023-03-19T05:41:30;98907.81;;;7.06;100.00
8318;BME280;4196;48.926;8.964;2023-03-19T05:44:21;98915.63;;;7.12;100.00
8318;BME280;4196;48.926;8.964;2023-03-19T05:47:19;98898.28;;;6.92;100.00
8318;BME280;4196;48.926;8.964;2023-03-19T05:50:10;98913.78;;;7.01;100.00
8318;BME280;4196;48.926;8.964;2023-03-19T05:53:02;98896.69;;;7.10;100.00
8318;BME280;4196;48.926;8.964;2023-03-19T05:55:51;98869.16;;;6.96;100.00
8318;BME280;4196;48.926;8.964;2023-03-19T05:58:38;98913.97;;;7.20;100.00
8318;BME280;4196;48.926;8.964;2023-03-19T06:01:25;98921.75;;;7.28;100.00
8318;BME280;4196;48.926;8.964;2023-03-19T06:04:13;98897.56;;;7.07;100.00
8318;BME280;4196;48.926;8.964;2023-03-19T06:06:59;98906.19;;;7.15;100.00
8318;BME280;4196;48.926;8.964;2023-03-19T06:09:46;98934.78;;;7.50;100.00
8318;BME280;4196;48.926;8.964;2023-03-19T06:12:33;98900.44;;;7.45;100.00
8318;BME280;4196;48.926;8.964;2023-03-19T06:15:42;98927.97;;;7.53;100.00
8318;BME280;4196;48.926;8.964;2023-03-19T06:18:45;98922.81;;;7.54;100.00
8318;BME280;4196;48.926;8.964;2023-03-19T06:21:33;98934.91;;;7.63;100.00
8318;BME280;4196;48.926;8.964;2023-03-19T06:24:22;98936.66;;;7.67;100.00
8318;BME280;4196;48.926;8.964;2023-03-19T06:27:08;98937.50;;;7.69;100.00
8318;BME280;4196;48.926;8.964;2023-03-19T06:29:56;98918.63;;;7.67;100.00
8318;BME280;4196;48.926;8.964;2023-03-19T06:32:49;98940.22;;;7.87;100.00
8318;BME280;4196;48.926;8.964;2023-03-19T06:35:35;98936.88;;;8.05;100.00
8318;BME280;4196;48.926;8.964;2023-03-19T06:38:22;98936.91;;;8.07;100.00
8318;BME280;4196;48.926;8.964;2023-03-19T06:41:09;98919.63;;;7.93;100.00
8318;BME280;4196;48.926;8.964;2023-03-19T06:43:56;98943.75;;;8.05;100.00
8318;BME280;4196;48.926;8.964;2023-03-19T06:46:43;98940.31;;;8.04;100.00
8318;BME280;4196;48.926;8.964;2023-03-19T06:49:29;98829.06;;;7.32;100.00
8318;BME280;4196;48.926;8.964;2023-03-19T06:52:16;98917.91;;;7.92;100.00
8318;BME280;4196;48.926;8.964;2023-03-19T06:55:02;98911.84;;;7.87;100.00
8318;BME280;4196;48.926;8.964;2023-03-19T06:57:49;98954.13;;;8.14;100.00
8318;BME280;4196;48.926;8.964;2023-03-19T07:00:36;98932.72;;;8.30;100.00
8318;BME280;4196;48.926;8.964;2023-03-19T07:03:22;98915.47;;;8.23;100.00
8318;BME280;4196;48.926;8.964;2023-03-19T07:06:09;98926.63;;;8.19;100.00
8318;BME280;4196;48.926;8.964;2023-03-19T07:08:55;98942.19;;;8.34;100.00
8318;BME280;4196;48.926;8.964;2023-03-19T07:11:42;98953.47;;;8.49;100.00
8318;BME280;4196;48.926;8.964;2023-03-19T07:14:28;98946.59;;;8.54;100.00
8318;BME280;4196;48.926;8.964;2023-03-19T07:17:14;98945.78;;;8.70;100.00
8318;BME280;4196;48.926;8.964;2023-03-19T07:20:00;98942.38;;;8.83;100.00
8318;BME280;4196;48.926;8.964;2023-03-19T07:22:49;98964.81;;;9.03;100.00
8318;BME280;4196;48.926;8.964;2023-03-19T07:25:36;98943.28;;;8.91;100.00
8318;BME280;4196;48.926;8.964;2023-03-19T07:28:23;98960.50;;;9.03;100.00
8318;BME280;4196;48.926;8.964;2023-03-19T07:31:09;98963.13;;;9.23;100.00
8318;BME280;4196;48.926;8.964;2023-03-19T07:33:56;98959.69;;;9.29;100.00
8318;BME280;4196;48.926;8.964;2023-03-19T07:36:42;98947.63;;;9.31;100.00
8318;BME280;4196;48.926;8.964;2023-03-19T07:39:28;98943.34;;;9.39;100.00
8318;BME280;4196;48.926;8.964;2023-03-19T07:42:15;98972.59;;;9.87;100.00
8318;BME280;4196;48.926;8.964;2023-03-19T07:45:02;98941.53;;;9.93;100.00
8318;BME280;4196;48.926;8.964;2023-03-19T07:47:49;98970.81;;;10.32;100.00
8318;BME280;4196;48.926;8.964;2023-03-19T07:50:36;98969.78;;;10.74;100.00
8318;BME280;4196;48.926;8.964;2023-03-19T07:53:23;98959.38;;;10.86;100.00
8318;BME280;4196;48.926;8.964;2023-03-19T07:56:11;98969.53;;;11.20;100.00
8318;BME280;4196;48.926;8.964;2023-03-19T07:58:57;98937.66;;;11.06;100.00
8318;BME280;4196;48.926;8.964;2023-03-19T08:01:45;98956.28;;;11.57;100.00
8318;BME280;4196;48.926;8.964;2023-03-19T08:04:32;98963.16;;;11.59;100.00
8318;BME280;4196;48.926;8.964;2023-03-19T08:07:18;98967.56;;;11.50;100.00
8318;BME280;4196;48.926;8.964;2023-03-19T08:10:06;98964.97;;;11.48;100.00
8318;BME280;4196;48.926;8.964;2023-03-19T08:12:53;98955.53;;;11.43;100.00
8318;BME280;4196;48.926;8.964;2023-03-19T08:15:40;98963.00;;;11.79;100.00
8318;BME280;4196;48.926;8.964;2023-03-19T08:18:26;98962.13;;;11.80;100.00
8318;BME280;4196;48.926;8.964;2023-03-19T08:21:13;98935.41;;;11.69;100.00
8318;BME280;4196;48.926;8.964;2023-03-19T08:23:59;98948.34;;;11.74;100.00
8318;BME280;4196;48.926;8.964;2023-03-19T08:26:49;98946.72;;;11.62;100.00
8318;BME280;4196;48.926;8.964;2023-03-19T08:29:35;98946.03;;;11.43;100.00
8318;BME280;4196;48.926;8.964;2023-03-19T08:32:22;98941.81;;;11.25;100.00
8318;BME280;4196;48.926;8.964;2023-03-19T08:35:10;98965.03;;;11.41;100.00
8318;BME280;4196;48.926;8.964;2023-03-19T08:37:56;98979.63;;;11.54;100.00
8318;BME280;4196;48.926;8.964;2023-03-19T08:40:43;98958.94;;;11.48;100.00
8318;BME280;4196;48.926;8.964;2023-03-19T08:43:30;98973.47;;;11.69;100.00
8318;BME280;4196;48.926;8.964;2023-03-19T08:46:18;98937.03;;;11.82;100.00
8318;BME280;4196;48.926;8.964;2023-03-19T08:49:04;98936.06;;;11.96;100.00
8318;BME280;4196;48.926;8.964;2023-03-19T08:51:51;98958.03;;;12.43;98.20
8318;BME280;4196;48.926;8.964;2023-03-19T08:54:37;98959.03;;;12.99;96.17
8318;BME280;4196;48.926;8.964;2023-03-19T08:57:23;98921.69;;;13.08;92.38
8318;BME280;4196;48.926;8.964;2023-03-19T09:00:10;98958.09;;;13.63;87.10
8318;BME280;4196;48.926;8.964;2023-03-19T09:02:57;98972.22;;;13.99;85.19
8318;BME280;4196;48.926;8.964;2023-03-19T09:05:44;98981.09;;;13.89;88.90
8318;BME280;4196;48.926;8.964;2023-03-19T09:08:31;98975.84;;;13.91;87.79
8318;BME280;4196;48.926;8.964;2023-03-19T09:11:18;98950.59;;;13.96;89.45
8318;BME280;4196;48.926;8.964;2023-03-19T09:14:04;98977.53;;;14.41;87.68
8318;BME280;4196;48.926;8.964;2023-03-19T09:16:52;98974.22;;;14.33;80.14
8318;BME280;4196;48.926;8.964;2023-03-19T09:19:38;98974.00;;;14.44;80.03
8318;BME280;4196;48.926;8.964;2023-03-19T09:22:24;98979.28;;;14.39;78.57
8318;BME280;4196;48.926;8.964;2023-03-19T09:25:11;98965.75;;;14.22;78.18
8318;BME280;4196;48.926;8.964;2023-03-19T09:27:57;98966.66;;;14.19;78.51
8318;BME280;4196;48.926;8.964;2023-03-19T09:30:45;98981.28;;;14.26;76.43
8318;BME280;4196;48.926;8.964;2023-03-19T09:33:32;98945.31;;;13.99;79.72
8318;BME280;4196;48.926;8.964;2023-03-19T09:36:19;98984.78;;;14.25;78.91
8318;BME280;4196;48.926;8.964;2023-03-19T09:39:06;98965.59;;;14.30;79.87
8318;BME280;4196;48.926;8.964;2023-03-19T09:44:52;98984.34;;;14.90;76.26
8318;BME280;4196;48.926;8.964;2023-03-19T09:47:39;98976.53;;;14.92;72.70
8318;BME280;4196;48.926;8.964;2023-03-19T09:50:28;98934.47;;;14.67;72.15
8318;BME280;4196;48.926;8.964;2023-03-19T09:56:44;98943.78;;;14.79;73.92
8318;BME280;4196;48.926;8.964;2023-03-19T09:59:31;98973.69;;;15.01;72.14
8318;BME280;4196;48.926;8.964;2023-03-19T10:02:38;98976.38;;;14.98;75.00
8318;BME280;4196;48.926;8.964;2023-03-19T10:08:40;98957.25;;;14.99;69.30
8318;BME280;4196;48.926;8.964;2023-03-19T10:11:58;98974.31;;;15.12;72.21
8318;BME280;4196;48.926;8.964;2023-03-19T10:21:01;98978.50;;;15.21;69.71
8318;BME280;4196;48.926;8.964;2023-03-19T10:24:12;98966.84;;;15.36;69.51
8318;BME280;4196;48.926;8.964;2023-03-19T10:27:15;98960.47;;;15.48;65.33
8318;BME280;4196;48.926;8.964;2023-03-19T10:30:11;98960.22;;;15.58;66.33
8318;BME280;4196;48.926;8.964;2023-03-19T10:33:24;98923.16;;;15.44;63.50
8318;BME280;4196;48.926;8.964;2023-03-19T10:36:14;98949.69;;;15.61;64.34
8318;BME280;4196;48.926;8.964;2023-03-19T10:39:03;98950.34;;;15.71;65.43
8318;BME280;4196;48.926;8.964;2023-03-19T10:42:07;98947.50;;;15.80;62.29
8318;BME280;4196;48.926;8.964;2023-03-19T10:45:03;98938.81;;;15.80;63.89
8318;BME280;4196;48.926;8.964;2023-03-19T10:47:51;98931.59;;;15.89;64.10
8318;BME280;4196;48.926;8.964;2023-03-19T10:51:06;98909.22;;;15.79;63.02
8318;BME280;4196;48.926;8.964;2023-03-19T10:53:52;98919.97;;;16.01;62.97
8318;BME280;4196;48.926;8.964;2023-03-19T10:56:44;98938.63;;;16.20;61.31
8318;BME280;4196;48.926;8.964;2023-03-19T10:59:35;98939.06;;;16.36;62.94
8318;BME280;4196;48.926;8.964;2023-03-19T11:02:24;98932.56;;;16.49;61.87
8318;BME280;4196;48.926;8.964;2023-03-19T11:05:27;98928.69;;;16.62;58.10
8318;BME280;4196;48.926;8.964;2023-03-19T11:08:20;98895.41;;;16.69;55.13
8318;BME280;4196;48.926;8.964;2023-03-19T11:11:44;98925.44;;;17.13;53.19
8318;BME280;4196;48.926;8.964;2023-03-19T11:14:40;98871.28;;;16.59;54.53
8318;BME280;4196;48.926;8.964;2023-03-19T11:18:00;98917.47;;;16.90;55.01
8318;BME280;4196;48.926;8.964;2023-03-19T11:23:41;98916.31;;;16.99;52.21
8318;BME280;4196;48.926;8.964;2023-03-19T11:26:28;98908.81;;;17.16;52.54
8318;BME280;4196;48.926;8.964;2023-03-19T11:29:14;98907.31;;;17.35;51.39
8318;BME280;4196;48.926;8.964;2023-03-19T11:32:08;98908.03;;;17.66;53.94
8318;BME280;4196;48.926;8.964;2023-03-19T11:35:14;98905.75;;;17.83;52.60
8318;BME280;4196;48.926;8.964;2023-03-19T11:38:03;98887.41;;;17.83;49.12
8318;BME280;4196;48.926;8.964;2023-03-19T11:44:17;98896.00;;;18.12;51.55
8318;BME280;4196;48.926;8.964;2023-03-19T11:47:06;98908.41;;;18.06;51.01
8318;BME280;4196;48.926;8.964;2023-03-19T11:50:25;98899.75;;;18.04;50.54
8318;BME280;4196;48.926;8.964;2023-03-19T11:53:20;98908.38;;;18.08;51.68
8318;BME280;4196;48.926;8.964;2023-03-19T11:59:12;98901.28;;;17.58;51.30
8318;BME280;4196;48.926;8.964;2023-03-19T12:11:32;98896.84;;;15.87;68.41
8318;BME280;4196;48.926;8.964;2023-03-19T12:27:01;98961.22;;;12.66;100.00
8318;BME280;4196;48.926;8.964;2023-03-19T12:36:25;98947.59;;;12.49;100.00
8318;BME280;4196;48.926;8.964;2023-03-19T12:39:19;98918.06;;;12.56;100.00
8318;BME280;4196;48.926;8.964;2023-03-19T12:42:11;98904.75;;;12.79;100.00
8318;BME280;4196;48.926;8.964;2023-03-19T12:45:01;98939.28;;;12.87;100.00
8318;BME280;4196;48.926;8.964;2023-03-19T12:47:54;98929.72;;;12.91;100.00
8318;BME280;4196;48.926;8.964;2023-03-19T12:50:47;98926.38;;;12.82;100.00
8318;BME280;4196;48.926;8.964;2023-03-19T13:03:04;98922.97;;;13.87;100.00
8318;BME280;4196;48.926;8.964;2023-03-19T13:06:04;98924.09;;;14.20;100.00
8318;BME280;4196;48.926;8.964;2023-03-19T13:09:09;98926.03;;;14.54;99.54
8318;BME280;4196;48.926;8.964;2023-03-19T13:12:00;98914.00;;;14.89;100.00
8318;BME280;4196;48.926;8.964;2023-03-19T13:15:11;98917.72;;;15.16;98.85
8318;BME280;4196;48.926;8.964;2023-03-19T13:24:12;98922.38;;;15.03;100.00
8318;BME280;4196;48.926;8.964;2023-03-19T13:27:01;98901.91;;;14.86;97.51
8318;BME280;4196;48.926;8.964;2023-03-19T13:29:59;98921.56;;;14.62;99.20
8318;BME280;4196;48.926;8.964;2023-03-19T13:32:49;98906.94;;;14.10;99.08
8318;BME280;4196;48.926;8.964;2023-03-19T13:35:42;98917.81;;;13.86;100.00
8318;BME280;4196;48.926;8.964;2023-03-19T13:38:45;98935.84;;;13.96;100.00
8318;BME280;4196;48.926;8.964;2023-03-19T13:44:38;98951.59;;;13.87;100.00
8318;BME280;4196;48.926;8.964;2023-03-19T13:53:20;98942.59;;;12.33;100.00
8318;BME280;4196;48.926;8.964;2023-03-19T13:56:11;98939.06;;;12.38;100.00
8318;BME280;4196;48.926;8.964;2023-03-19T14:08:14;98934.50;;;12.56;100.00
8318;BME280;4196;48.926;8.964;2023-03-19T14:11:03;98934.09;;;12.89;100.00
8318;BME280;4196;48.926;8.964;2023-03-19T14:13:52;98875.28;;;12.80;100.00
8318;BME280;4196;48.926;8.964;2023-03-19T14:16:44;98896.38;;;13.17;100.00
8318;BME280;4196;48.926;8.964;2023-03-19T14:19:39;98922.94;;;13.41;100.00
8318;BME280;4196;48.926;8.964;2023-03-19T14:23:38;98920.16;;;13.50;100.00
8318;BME280;4196;48.926;8.964;2023-03-19T14:26:14;98920.16;;;13.50;100.00
8318;BME280;4196;48.926;8.964;2023-03-19T14:29:03;98908.31;;;13.34;100.00
8318;BME280;4196;48.926;8.964;2023-03-19T14:31:54;98926.72;;;13.18;100.00
8318;BME280;4196;48.926;8.964;2023-03-19T14:34:44;98923.44;;;13.05;100.00
8318;BME280;4196;48.926;8.964;2023-03-19T14:37:43;98919.25;;;12.97;100.00
8318;BME280;4196;48.926;8.964;2023-03-19T14:40:40;98924.69;;;12.78;100.00
8318;BME280;4196;48.926;8.964;2023-03-19T14:59:10;98893.59;;;11.09;100.00
8318;BME280;4196;48.926;8.964;2023-03-19T15:01:58;98936.00;;;10.94;100.00
8318;BME280;4196;48.926;8.964;2023-03-19T15:04:45;98942.16;;;10.73;100.00
8318;BME280;4196;48.926;8.964;2023-03-19T15:07:39;98918.16;;;10.34;100.00
8318;BME280;4196;48.926;8.964;2023-03-19T15:10:33;98944.75;;;10.70;100.00
8318;BME280;4196;48.926;8.964;2023-03-19T15:13:23;98956.81;;;10.77;100.00
8318;BME280;4196;48.926;8.964;2023-03-19T15:16:30;98956.00;;;10.66;100.00
8318;BME280;4196;48.926;8.964;2023-03-19T15:19:24;98923.31;;;10.44;100.00
8318;BME280;4196;48.926;8.964;2023-03-19T15:22:29;98915.56;;;10.42;100.00
8318;BME280;4196;48.926;8.964;2023-03-19T15:25:19;98899.19;;;10.23;100.00
8318;BME280;4196;48.926;8.964;2023-03-19T15:28:11;98922.53;;;10.28;100.00
8318;BME280;4196;48.926;8.964;2023-03-19T15:31:01;98951.72;;;10.56;100.00
8318;BME280;4196;48.926;8.964;2023-03-19T15:37:07;98926.78;;;10.46;100.00
8318;BME280;4196;48.926;8.964;2023-03-19T15:39:56;98949.13;;;10.62;100.00
8318;BME280;4196;48.926;8.964;2023-03-19T15:42:46;98949.13;;;10.56;100.00
8318;BME280;4196;48.926;8.964;2023-03-19T15:45:33;98923.34;;;10.22;100.00
8318;BME280;4196;48.926;8.964;2023-03-19T15:48:35;98963.03;;;10.39;100.00
8318;BME280;4196;48.926;8.964;2023-03-19T15:51:25;98966.44;;;10.45;100.00
8318;BME280;4196;48.926;8.964;2023-03-19T15:54:12;98957.84;;;10.20;100.00
8318;BME280;4196;48.926;8.964;2023-03-19T15:56:58;98965.63;;;10.21;100.00
8318;BME280;4196;48.926;8.964;2023-03-19T15:59:45;98938.94;;;9.98;100.00
8318;BME280;4196;48.926;8.964;2023-03-19T16:02:32;98978.59;;;10.06;100.00
8318;BME280;4196;48.926;8.964;2023-03-19T16:05:27;98991.50;;;10.24;100.00
8318;BME280;4196;48.926;8.964;2023-03-19T16:08:23;99008.75;;;10.33;100.00
8318;BME280;4196;48.926;8.964;2023-03-19T16:11:29;99004.44;;;10.15;100.00
8318;BME280;4196;48.926;8.964;2023-03-19T16:17:33;98966.53;;;9.86;100.00
8318;BME280;4196;48.926;8.964;2023-03-19T16:20:20;98954.50;;;9.72;100.00
8318;BME280;4196;48.926;8.964;2023-03-19T16:23:15;98984.66;;;9.85;100.00
8318;BME280;4196;48.926;8.964;2023-03-19T16:26:04;98975.19;;;9.76;100.00
8318;BME280;4196;48.926;8.964;2023-03-19T16:29:04;99001.88;;;9.97;100.00
8318;BME280;4196;48.926;8.964;2023-03-19T16:31:58;99001.88;;;10.04;100.00
8318;BME280;4196;48.926;8.964;2023-03-19T16:34:49;99013.94;;;10.01;100.00
8318;BME280;4196;48.926;8.964;2023-03-19T16:37:39;99001.03;;;10.10;100.00
8318;BME280;4196;48.926;8.964;2023-03-19T16:40:34;99009.63;;;10.18;100.00
8318;BME280;4196;48.926;8.964;2023-03-19T16:43:31;99019.97;;;10.46;100.00
8318;BME280;4196;48.926;8.964;2023-03-19T16:46:19;99027.66;;;10.66;100.00
8318;BME280;4196;48.926;8.964;2023-03-19T16:49:06;99031.97;;;10.68;100.00
8318;BME280;4196;48.926;8.964;2023-03-19T16:51:52;99030.25;;;10.56;100.00
8318;BME280;4196;48.926;8.964;2023-03-19T16:54:39;99027.69;;;10.49;100.00
8318;BME280;4196;48.926;8.964;2023-03-19T16:57:26;99014.78;;;10.24;100.00
8318;BME280;4196;48.926;8.964;2023-03-19T17:00:13;99026.03;;;10.17;100.00
8318;BME280;4196;48.926;8.964;2023-03-19T17:02:59;98961.41;;;9.62;100.00
8318;BME280;4196;48.926;8.964;2023-03-19T17:05:46;99039.84;;;9.88;100.00
8318;BME280;4196;48.926;8.964;2023-03-19T17:08:33;99043.28;;;9.78;100.00
8318;BME280;4196;48.926;8.964;2023-03-19T17:11:28;99040.69;;;9.74;100.00
8318;BME280;4196;48.926;8.964;2023-03-19T17:14:19;99055.34;;;9.62;100.00
8318;BME280;4196;48.926;8.964;2023-03-19T17:17:18;99047.56;;;9.53;100.00